Time;durP1;ratioP1;P1;durP2;ratioP2;P2;SDS_P1;SDS_P2;PMS_P1;PMS_P2;Temp;Humidity;BMP_temperature;BMP_pressure;BME280_temperature;BME280_humidity;BME280_pressure;Samples;Min_cycle;Max_cycle;Signal;HPM_P1;HPM_P2
2023/11/28 00:01:02;;;;;;;1.30;0.60;;;;;;;6.47;98.45;95840.88;4185204;28;20205;-88
2023/11/28 00:03:05;;;;;;;1.20;0.52;;;;;;;6.48;98.06;95834.75;4184350;28;20202;-88
2023/11/28 00:05:09;;;;;;;1.13;0.50;;;;;;;6.45;97.83;95837.63;4165940;28;20857;-88
2023/11/28 00:07:12;;;;;;;1.25;0.68;;;;;;;6.47;98.03;95833.13;4186769;28;20691;-87
2023/11/28 00:09:17;;;;;;;1.50;0.60;;;;;;;6.44;98.46;95824.81;4164273;28;20195;-87
2023/11/28 00:11:21;;;;;;;1.45;0.63;;;;;;;6.42;98.80;95832.72;4173931;28;20209;-87
2023/11/28 00:13:27;;;;;;;1.10;0.50;;;;;;;6.42;98.73;95826.69;4182248;28;20206;-87
2023/11/28 00:15:32;;;;;;;1.10;0.50;;;;;;;6.36;98.33;95822.06;4180325;28;20217;-88
2023/11/28 00:17:34;;;;;;;1.20;0.50;;;;;;;6.35;98.35;95823.03;4184027;28;20293;-87
2023/11/28 00:19:37;;;;;;;1.15;0.40;;;;;;;6.34;99.35;95821.38;4179805;28;20284;-87
2023/11/28 00:21:41;;;;;;;1.20;0.60;;;;;;;6.37;98.91;95813.34;4186787;28;20247;-87
2023/11/28 00:23:46;;;;;;;1.15;0.50;;;;;;;6.36;99.05;95817.72;4185813;28;20212;-87
2023/11/28 00:25:51;;;;;;;0.90;0.40;;;;;;;6.32;99.32;95816.34;4170334;28;20619;-87
2023/11/28 00:27:54;;;;;;;1.30;0.40;;;;;;;6.26;98.71;95811.72;4183267;28;20528;-87
2023/11/28 00:29:57;;;;;;;1.25;0.50;;;;;;;6.27;99.82;95813.34;4184462;28;20332;-87
2023/11/28 00:32:01;;;;;;;1.00;0.40;;;;;;;6.21;100.00;95810.50;4182473;28;20317;-87
2023/11/28 00:34:04;;;;;;;0.98;0.40;;;;;;;6.23;99.67;95809.38;4181235;28;20206;-87
2023/11/28 00:36:07;;;;;;;1.10;0.40;;;;;;;6.23;99.91;95801.63;4184324;28;20226;-87
2023/11/28 00:38:11;;;;;;;1.20;0.60;;;;;;;6.22;99.48;95796.59;4187811;28;20602;-87
2023/11/28 00:40:14;;;;;;;1.00;0.40;;;;;;;6.20;99.75;95794.13;4182627;28;20210;-87
2023/11/28 00:42:18;;;;;;;1.10;0.50;;;;;;;6.19;99.96;95795.09;4200629;28;20233;-87
2023/11/28 00:44:22;;;;;;;1.70;0.52;;;;;;;6.19;99.69;95792.50;4171682;28;20781;-87
2023/11/28 00:46:24;;;;;;;1.08;0.40;;;;;;;6.23;99.74;95795.63;4171411;28;20267;-87
2023/11/28 00:48:27;;;;;;;1.42;0.47;;;;;;;6.27;99.87;95795.25;4165278;28;20237;-87
2023/11/28 00:50:30;;;;;;;1.70;0.65;;;;;;;6.28;100.00;95794.25;4190612;28;20202;-87
2023/11/28 00:52:33;;;;;;;1.00;0.50;;;;;;;6.31;100.00;95788.81;4174114;28;20234;-87
2023/11/28 00:54:38;;;;;;;1.02;0.40;;;;;;;6.32;100.00;95789.66;4188634;28;20626;-87
2023/11/28 00:56:41;;;;;;;1.35;0.60;;;;;;;6.33;100.00;95781.75;4185648;28;20221;-87
2023/11/28 00:58:45;;;;;;;1.60;0.50;;;;;;;6.36;99.91;95791.84;4169952;28;20199;-87
2023/11/28 01:00:48;;;;;;;1.13;0.43;;;;;;;6.39;99.94;95781.22;4183723;28;20205;-87
2023/11/28 01:02:52;;;;;;;1.20;0.30;;;;;;;6.41;100.00;95781.88;4184681;28;20711;-87
2023/11/28 01:04:55;;;;;;;1.10;0.50;;;;;;;6.43;99.83;95782.56;4167807;28;20207;-87
2023/11/28 01:06:59;;;;;;;1.10;0.40;;;;;;;6.48;99.92;95776.97;4185413;28;20202;-86
2023/11/28 01:09:03;;;;;;;2.35;0.50;;;;;;;6.50;99.87;95781.06;4168903;28;20298;-87
2023/11/28 01:11:07;;;;;;;1.40;0.50;;;;;;;6.52;100.00;95786.09;4178153;28;20652;-87
2023/11/28 01:13:11;;;;;;;1.20;0.55;;;;;;;6.52;99.80;95781.75;4174920;28;20284;-87
2023/11/28 01:15:16;;;;;;;1.20;0.50;;;;;;;6.55;99.38;95781.47;4187279;28;20315;-87
2023/11/28 01:17:19;;;;;;;0.90;0.35;;;;;;;6.58;98.83;95778.59;4167199;28;20268;-87
2023/11/28 01:19:22;;;;;;;1.00;0.40;;;;;;;6.59;99.55;95782.84;4184695;28;20210;-87
2023/11/28 01:21:26;;;;;;;1.00;0.40;;;;;;;6.62;99.54;95782.56;4186674;28;20410;-87
2023/11/28 01:23:29;;;;;;;1.35;0.50;;;;;;;6.61;98.98;95765.38;4183667;28;20220;-87
2023/11/28 01:25:31;;;;;;;1.05;0.47;;;;;;;6.63;99.22;95779.00;4187506;28;20214;-87
2023/11/28 01:27:35;;;;;;;3.55;0.50;;;;;;;6.63;98.34;95779.00;4183784;28;20238;-87
2023/11/28 01:29:39;;;;;;;1.10;0.50;;;;;;;6.62;98.32;95774.78;4189284;28;20253;-87
2023/11/28 01:31:43;;;;;;;1.00;0.43;;;;;;;6.61;97.75;95768.81;4184267;28;20230;-87
2023/11/28 01:33:46;;;;;;;1.40;0.40;;;;;;;6.62;97.95;95772.22;4182633;28;20253;-87
2023/11/28 01:35:49;;;;;;;2.00;0.52;;;;;;;6.64;98.85;95762.53;4186504;28;20687;-87
2023/11/28 01:37:53;;;;;;;1.10;0.50;;;;;;;6.68;97.19;95762.09;4173412;28;20294;-86
2023/11/28 01:39:58;;;;;;;1.10;0.50;;;;;;;6.64;97.79;95755.56;4187070;28;20861;-87
2023/11/28 01:42:01;;;;;;;1.15;0.50;;;;;;;6.66;98.72;95752.81;4186556;28;20322;-87
2023/11/28 01:44:05;;;;;;;1.30;0.50;;;;;;;6.68;98.37;95766.47;4188951;28;20206;-87
2023/11/28 01:46:09;;;;;;;1.17;0.45;;;;;;;6.71;98.58;95755.84;4186960;28;20203;-88
2023/11/28 01:48:14;;;;;;;1.15;0.55;;;;;;;6.72;98.06;95758.28;4184862;28;20201;-88
2023/11/28 01:50:18;;;;;;;1.38;0.50;;;;;;;6.72;98.79;95752.28;4189208;28;20197;-87
2023/11/28 01:52:22;;;;;;;1.25;0.65;;;;;;;6.75;97.94;95752.00;4198203;28;20233;-88
2023/11/28 01:54:25;;;;;;;1.35;0.60;;;;;;;6.78;97.96;95751.72;4191365;28;20283;-88
2023/11/28 01:56:29;;;;;;;1.67;0.60;;;;;;;6.76;98.16;95744.09;4185787;28;20265;-87
2023/11/28 01:58:32;;;;;;;1.38;0.60;;;;;;;6.79;99.07;95741.22;4168333;28;20695;-87
2023/11/28 02:00:36;;;;;;;1.00;0.50;;;;;;;6.82;97.90;95742.72;4185355;28;20202;-88
2023/11/28 02:02:39;;;;;;;1.08;0.40;;;;;;;6.83;98.42;95737.41;4186234;28;20202;-88
2023/11/28 02:04:44;;;;;;;1.27;0.60;;;;;;;6.85;98.83;95734.69;4188115;28;20290;-88
2023/11/28 02:06:47;;;;;;;1.10;0.50;;;;;;;6.89;97.30;95743.81;4169228;28;20221;-87
2023/11/28 02:08:49;;;;;;;1.10;0.50;;;;;;;6.89;97.59;95739.44;4174129;28;20218;-88
2023/11/28 02:10:53;;;;;;;3.50;0.50;;;;;;;6.91;98.55;95729.75;4191876;28;20240;-88
2023/11/28 02:12:56;;;;;;;1.20;0.57;;;;;;;6.94;98.83;95739.03;4184614;28;20251;-88
2023/11/28 02:15:03;;;;;;;1.50;0.80;;;;;;;6.96;97.32;95726.72;4170277;28;20206;-87
2023/11/28 02:17:07;;;;;;;1.00;0.47;;;;;;;6.98;97.24;95722.25;4176126;28;20228;-87
2023/11/28 02:19:11;;;;;;;1.40;0.50;;;;;;;7.00;98.72;95722.91;4188853;28;20712;-88
2023/11/28 02:21:16;;;;;;;1.30;0.70;;;;;;;7.01;97.97;95725.38;4185645;28;20267;-88
2023/11/28 02:23:19;;;;;;;1.20;0.60;;;;;;;7.03;97.55;95725.22;4189000;28;20257;-88
2023/11/28 02:25:22;;;;;;;1.33;0.57;;;;;;;7.04;97.42;95728.47;4190431;28;20214;-87
2023/11/28 02:27:26;;;;;;;1.00;0.50;;;;;;;7.05;98.02;95717.16;4190431;28;20246;-87
2023/11/28 02:29:29;;;;;;;1.92;0.65;;;;;;;7.05;97.53;95718.91;4175962;28;20206;-88
2023/11/28 02:31:33;;;;;;;1.30;0.60;;;;;;;7.03;96.90;95719.06;4189678;28;20263;-88
2023/11/28 02:33:35;;;;;;;1.35;0.50;;;;;;;7.05;97.81;95727.53;4185968;28;20232;-87
2023/11/28 02:35:38;;;;;;;1.20;0.60;;;;;;;7.06;96.92;95729.16;4176019;28;20266;-88
2023/11/28 02:37:41;;;;;;;1.10;0.55;;;;;;;7.05;97.29;95722.34;4186195;28;20223;-87
2023/11/28 02:39:48;;;;;;;1.10;0.60;;;;;;;7.06;98.09;95728.34;4174340;28;20206;-87
2023/11/28 02:41:52;;;;;;;1.63;0.60;;;;;;;7.05;98.46;95717.16;4173298;28;20210;-87
2023/11/28 02:43:57;;;;;;;1.67;0.68;;;;;;;7.04;98.49;95715.53;4172113;28;20621;-87
2023/11/28 02:46:00;;;;;;;1.20;0.60;;;;;;;7.00;98.02;95713.34;4185126;28;20261;-87
2023/11/28 02:48:04;;;;;;;1.30;0.55;;;;;;;6.98;97.75;95711.88;4169820;28;20215;-87
2023/11/28 02:50:07;;;;;;;1.40;0.70;;;;;;;6.98;98.16;95710.09;4185494;28;20245;-87
2023/11/28 02:52:11;;;;;;;1.10;0.70;;;;;;;6.99;99.84;95708.31;4188241;28;20225;-87
2023/11/28 02:54:14;;;;;;;1.42;0.73;;;;;;;7.00;98.32;95709.97;4186694;28;20209;-88
2023/11/28 02:56:18;;;;;;;1.13;0.60;;;;;;;6.99;98.59;95709.16;4187488;28;20214;-88
2023/11/28 02:58:20;;;;;;;1.20;0.50;;;;;;;7.02;98.69;95710.63;4189323;28;20233;-87
2023/11/28 03:00:25;;;;;;;2.00;0.68;;;;;;;6.99;98.72;95705.72;4175491;28;20215;-87
2023/11/28 03:02:29;;;;;;;1.20;0.60;;;;;;;6.97;99.46;95694.69;4187588;28;20205;-87
2023/11/28 03:04:33;;;;;;;1.55;0.73;;;;;;;7.00;99.60;95694.41;4173119;28;20262;-88
2023/11/28 03:06:36;;;;;;;1.92;0.90;;;;;;;6.98;99.26;95696.34;4191346;28;20735;-87
2023/11/28 03:08:39;;;;;;;1.30;0.60;;;;;;;6.95;100.00;95699.22;4170244;28;20255;-87
2023/11/28 03:10:42;;;;;;;1.50;0.70;;;;;;;6.93;99.23;95704.53;4184682;28;20302;-87
2023/11/28 03:12:46;;;;;;;1.50;0.60;;;;;;;6.92;100.00;95700.31;4185514;28;20238;-87
2023/11/28 03:14:49;;;;;;;1.55;0.70;;;;;;;6.94;100.00;95697.56;4188119;28;20663;-87
2023/11/28 03:16:53;;;;;;;1.45;0.75;;;;;;;6.95;100.00;95700.03;4202565;28;20305;-87
2023/11/28 03:18:57;;;;;;;1.67;0.80;;;;;;;6.94;99.78;95700.16;4189101;28;20245;-87
2023/11/28 03:21:00;;;;;;;1.50;0.80;;;;;;;6.95;100.00;95691.44;4187831;28;20305;-88
2023/11/28 03:23:03;;;;;;;2.45;0.80;;;;;;;6.87;100.00;95688.72;4188374;28;20615;-88
2023/11/28 03:25:09;;;;;;;1.85;0.90;;;;;;;6.83;100.00;95688.19;4182775;28;20344;-88
2023/11/28 03:27:12;;;;;;;1.58;0.88;;;;;;;6.84;100.00;95684.66;4204387;28;20214;-87
2023/11/28 03:29:17;;;;;;;1.40;0.90;;;;;;;6.86;100.00;95692.28;4172014;28;20249;-87
2023/11/28 03:31:20;;;;;;;1.70;1.05;;;;;;;6.87;100.00;95689.56;4183979;28;20763;-87
2023/11/28 03:33:25;;;;;;;1.83;0.90;;;;;;;6.89;100.00;95689.41;4183843;28;20229;-87
2023/11/28 03:35:28;;;;;;;1.58;0.93;;;;;;;6.90;100.00;95691.03;4182372;28;20214;-87
2023/11/28 03:37:32;;;;;;;1.90;1.00;;;;;;;6.89;100.00;95682.44;4198625;28;20239;-88
2023/11/28 03:39:35;;;;;;;1.40;0.80;;;;;;;6.92;100.00;95678.78;4174032;28;20205;-87
2023/11/28 03:41:38;;;;;;;2.20;0.80;;;;;;;6.94;100.00;95674.25;4172357;28;20214;-88
2023/11/28 03:43:41;;;;;;;1.40;0.85;;;;;;;6.95;100.00;95681.09;4172228;28;20272;-86
2023/11/28 03:45:44;;;;;;;1.45;0.70;;;;;;;6.93;100.00;95676.03;4189612;28;20205;-87
2023/11/28 03:47:48;;;;;;;2.35;1.00;;;;;;;6.95;100.00;95675.91;4186661;28;20208;-87
2023/11/28 03:49:52;;;;;;;1.83;0.70;;;;;;;6.97;100.00;95679.16;4183460;28;20649;-87
2023/11/28 03:51:56;;;;;;;1.83;0.93;;;;;;;6.98;100.00;95676.41;4204501;28;20208;-87
2023/11/28 03:53:59;;;;;;;1.30;0.80;;;;;;;7.00;100.00;95679.69;4187095;28;20196;-87
2023/11/28 03:56:06;;;;;;;2.38;0.95;;;;;;;7.00;100.00;95690.03;4189338;28;20620;-88
2023/11/28 03:58:09;;;;;;;1.77;1.20;;;;;;;7.01;100.00;95686.50;4171406;28;20231;-88
2023/11/28 04:00:14;;;;;;;2.28;1.25;;;;;;;7.03;100.00;95688.94;4188736;28;20374;-86
2023/11/28 04:02:18;;;;;;;1.77;0.90;;;;;;;7.00;100.00;95692.63;4189792;28;20768;-87
2023/11/28 04:04:21;;;;;;;2.15;1.00;;;;;;;6.99;100.00;95683.25;4190671;28;20202;-88
2023/11/28 04:06:26;;;;;;;1.90;0.88;;;;;;;6.97;100.00;95681.75;4191113;28;20740;-87
2023/11/28 04:08:28;;;;;;;1.60;1.00;;;;;;;6.92;100.00;95682.16;4174868;28;20206;-87
2023/11/28 04:10:31;;;;;;;2.10;0.90;;;;;;;6.91;100.00;95690.09;4189962;28;20206;-87
2023/11/28 04:12:35;;;;;;;1.70;1.20;;;;;;;6.93;100.00;95688.16;4190027;28;20207;-88
2023/11/28 04:14:38;;;;;;;1.63;0.93;;;;;;;6.90;100.00;95684.09;4184401;28;20515;-87
2023/11/28 04:16:41;;;;;;;3.15;1.23;;;;;;;6.88;100.00;95686.00;4168888;28;20268;-87
2023/11/28 04:18:46;;;;;;;1.83;1.05;;;;;;;6.89;100.00;95692.00;4185596;28;20233;-88
2023/11/28 04:20:49;;;;;;;1.42;0.80;;;;;;;6.88;100.00;95680.00;4189567;28;20651;-87
2023/11/28 04:22:54;;;;;;;1.85;0.90;;;;;;;6.90;100.00;95684.09;4186335;28;21006;-88
2023/11/28 04:24:58;;;;;;;1.02;0.50;;;;;;;6.92;100.00;95674.41;4190787;28;20703;-86
2023/11/28 04:27:00;;;;;;;1.10;0.40;;;;;;;6.87;100.00;95673.19;4185989;28;20301;-87
2023/11/28 04:29:04;;;;;;;1.23;0.40;;;;;;;6.84;100.00;95681.22;4175528;28;20228;-87
2023/11/28 04:31:08;;;;;;;1.10;0.50;;;;;;;6.82;100.00;95681.38;4191020;28;20235;-87
2023/11/28 04:33:13;;;;;;;1.20;0.50;;;;;;;6.87;100.00;95679.19;4184680;28;20206;-88
2023/11/28 04:35:19;;;;;;;1.40;0.82;;;;;;;6.90;100.00;95675.50;4189060;28;20215;-88
2023/11/28 04:37:23;;;;;;;1.27;0.50;;;;;;;6.95;100.00;95681.88;4186784;28;20228;-88
2023/11/28 04:39:30;;;;;;;1.10;0.50;;;;;;;7.00;100.00;95678.88;4187995;28;20232;-87
2023/11/28 04:41:36;;;;;;;1.50;0.52;;;;;;;7.03;100.00;95685.38;4189835;28;20311;-87
2023/11/28 04:43:38;;;;;;;1.10;0.50;;;;;;;7.06;100.00;95679.91;4168224;28;20210;-88
2023/11/28 04:45:42;;;;;;;1.73;0.60;;;;;;;7.11;100.00;95689.84;4188491;28;20201;-87
2023/11/28 04:47:45;;;;;;;1.10;0.50;;;;;;;7.13;100.00;95683.56;4188834;28;20207;-87
2023/11/28 04:49:48;;;;;;;1.20;0.57;;;;;;;7.15;100.00;95686.03;4191972;28;20211;-87
2023/11/28 04:51:51;;;;;;;1.20;0.50;;;;;;;7.15;100.00;95686.84;4190455;28;20947;-87
2023/11/28 04:53:55;;;;;;;1.20;0.55;;;;;;;7.16;100.00;95675.50;4186860;28;21025;-88
2023/11/28 04:56:00;;;;;;;1.30;0.60;;;;;;;7.19;100.00;95687.38;4174917;28;20237;-87
2023/11/28 04:58:04;;;;;;;1.20;0.50;;;;;;;7.21;100.00;95686.25;4188788;28;20228;-87
2023/11/28 05:00:09;;;;;;;1.30;0.57;;;;;;;7.22;100.00;95687.91;4189135;28;20211;-87
2023/11/28 05:02:14;;;;;;;1.40;0.73;;;;;;;7.23;100.00;95686.13;4175330;28;20236;-87
2023/11/28 05:04:17;;;;;;;1.40;0.70;;;;;;;7.23;100.00;95686.94;4189320;28;20210;-88
2023/11/28 05:06:20;;;;;;;1.20;0.60;;;;;;;7.24;100.00;95687.75;4176758;28;20674;-87
2023/11/28 05:08:24;;;;;;;1.52;0.65;;;;;;;7.24;100.00;95688.56;4192843;28;20293;-88
2023/11/28 05:10:26;;;;;;;1.45;0.63;;;;;;;7.27;100.00;95692.66;4193935;28;20244;-88
2023/11/28 05:12:32;;;;;;;1.95;0.90;;;;;;;7.24;100.00;95698.94;4176676;28;20647;-88
2023/11/28 05:14:36;;;;;;;1.83;0.80;;;;;;;7.24;100.00;95698.94;4187107;28;20209;-88
2023/11/28 05:16:39;;;;;;;2.40;0.90;;;;;;;7.25;100.00;95700.56;4171994;28;20234;-88
2023/11/28 05:18:55;;;;;;;1.98;1.08;;;;;;;7.23;100.00;95692.13;4170338;28;20247;-87
2023/11/28 05:20:59;;;;;;;1.42;0.90;;;;;;;7.17;100.00;95687.53;4174283;28;20208;-88
2023/11/28 05:23:03;;;;;;;1.20;0.63;;;;;;;7.15;100.00;95686.03;4187673;28;20260;-88
2023/11/28 05:25:08;;;;;;;1.20;0.70;;;;;;;7.15;100.00;95689.41;4191792;28;20735;-88
2023/11/28 05:27:11;;;;;;;1.20;0.70;;;;;;;7.16;100.00;95700.63;4172700;28;20203;-88
2023/11/28 05:29:17;;;;;;;1.20;0.60;;;;;;;7.16;100.00;95701.44;4194608;28;20209;-87
2023/11/28 05:31:20;;;;;;;2.15;0.90;;;;;;;7.16;100.00;95705.81;4173529;28;20237;-88
2023/11/28 05:33:24;;;;;;;1.90;1.13;;;;;;;7.15;100.00;95709.34;4187212;28;20208;-88
2023/11/28 05:35:28;;;;;;;1.98;0.80;;;;;;;7.16;100.00;95714.38;4170221;28;20246;-88
2023/11/28 05:37:31;;;;;;;1.40;0.73;;;;;;;7.15;100.00;95722.31;4169002;28;20272;-88
2023/11/28 05:39:33;;;;;;;1.70;1.00;;;;;;;7.14;100.00;95724.09;4188051;28;20245;-88
2023/11/28 05:41:37;;;;;;;4.13;1.27;;;;;;;7.12;100.00;95723.41;4189741;28;20210;-88
2023/11/28 05:43:40;;;;;;;2.25;1.10;;;;;;;7.11;100.00;95737.34;4187808;28;20209;-88
2023/11/28 05:45:45;;;;;;;1.52;1.00;;;;;;;7.12;100.00;95738.13;4172479;28;20682;-88
2023/11/28 05:47:47;;;;;;;1.60;1.20;;;;;;;7.13;100.00;95740.59;4183468;28;20264;-86
2023/11/28 05:49:50;;;;;;;2.05;1.60;;;;;;;7.13;100.00;95738.00;4188369;28;20199;-88
2023/11/28 05:51:54;;;;;;;2.03;1.25;;;;;;;7.15;100.00;95743.84;4175257;28;20597;-88
2023/11/28 05:53:59;;;;;;;2.15;1.50;;;;;;;7.12;100.00;95745.91;4203685;28;20206;-87
2023/11/28 05:56:09;;;;;;;2.55;1.42;;;;;;;7.07;100.00;95746.34;4189584;28;20211;-87
2023/11/28 05:58:12;;;;;;;2.22;1.48;;;;;;;7.05;100.00;95750.84;4185805;28;20251;-87
2023/11/28 06:00:16;;;;;;;1.70;1.27;;;;;;;7.06;100.00;95760.25;4187662;28;20245;-87
2023/11/28 06:02:23;;;;;;;1.67;1.17;;;;;;;7.05;100.00;95752.59;4207273;28;20210;-88
2023/11/28 06:04:29;;;;;;;1.70;1.10;;;;;;;6.99;100.00;95748.00;4168752;28;20202;-87
2023/11/28 06:06:33;;;;;;;2.63;1.20;;;;;;;7.00;100.00;95756.59;4171663;28;20203;-87
2023/11/28 06:08:35;;;;;;;1.98;1.20;;;;;;;7.03;100.00;95768.28;4193269;28;20248;-88
2023/11/28 06:10:38;;;;;;;1.83;1.08;;;;;;;7.02;100.00;95768.44;4186075;28;20213;-86
2023/11/28 06:12:42;;;;;;;2.60;1.20;;;;;;;7.03;100.00;95771.84;4185618;28;20245;-87
2023/11/28 06:14:44;;;;;;;2.45;1.38;;;;;;;7.00;100.00;95775.53;4174972;28;20233;-87
2023/11/28 06:16:47;;;;;;;2.00;1.35;;;;;;;6.97;100.00;95782.78;4174377;28;20214;-87
2023/11/28 06:18:52;;;;;;;1.80;1.30;;;;;;;6.95;100.00;95792.47;4176586;28;20208;-87
2023/11/28 06:20:55;;;;;;;2.45;1.10;;;;;;;6.92;100.00;95795.34;4192817;28;20222;-87
2023/11/28 06:22:59;;;;;;;1.65;1.05;;;;;;;6.82;100.00;95784.97;4175068;28;20202;-87
2023/11/28 06:25:03;;;;;;;1.70;0.90;;;;;;;6.72;99.29;95789.38;4173036;28;20631;-87
2023/11/28 06:27:09;;;;;;;1.40;1.00;;;;;;;6.70;100.00;95800.81;4185586;28;20226;-87
2023/11/28 06:29:13;;;;;;;2.28;1.00;;;;;;;6.67;100.00;95808.84;4188904;28;20196;-87
2023/11/28 06:31:17;;;;;;;1.75;1.00;;;;;;;6.61;100.00;95812.00;4189804;28;20225;-87
2023/11/28 06:33:20;;;;;;;1.60;1.30;;;;;;;6.59;99.97;95809.53;4186353;28;20229;-87
2023/11/28 06:35:26;;;;;;;2.15;1.20;;;;;;;6.56;100.00;95820.16;4173820;28;20218;-88
2023/11/28 06:37:29;;;;;;;1.60;1.05;;;;;;;6.55;100.00;95827.25;4184187;28;20210;-87
2023/11/28 06:39:33;;;;;;;3.78;1.40;;;;;;;6.50;100.00;95827.66;4188634;28;20703;-88
2023/11/28 06:41:37;;;;;;;1.70;1.27;;;;;;;6.45;98.93;95835.03;4173732;28;20299;-87
2023/11/28 06:43:40;;;;;;;1.98;1.55;;;;;;;6.40;99.19;95839.78;4188543;28;20209;-87
2023/11/28 06:45:43;;;;;;;1.90;1.70;;;;;;;6.37;98.54;95839.22;4190313;28;20882;-87
2023/11/28 06:47:46;;;;;;;2.10;1.90;;;;;;;6.30;98.83;95848.47;4191968;28;20784;-87
2023/11/28 06:49:50;;;;;;;2.03;1.80;;;;;;;6.18;98.42;95852.97;4192892;28;20201;-87
2023/11/28 06:51:53;;;;;;;1.92;1.70;;;;;;;6.06;98.27;95842.88;4191188;28;20230;-88
2023/11/28 06:53:57;;;;;;;3.92;2.17;;;;;;;6.04;98.09;95857.69;4189931;28;20210;-86
2023/11/28 06:56:02;;;;;;;4.07;2.05;;;;;;;6.01;98.29;95859.72;4191972;28;20209;-87
2023/11/28 06:58:04;;;;;;;2.33;2.13;;;;;;;5.99;98.57;95864.22;4189685;28;20198;-87
2023/11/28 07:00:08;;;;;;;2.28;2.08;;;;;;;5.92;98.06;95886.38;4205548;28;20228;-87
2023/11/28 07:02:12;;;;;;;2.40;2.20;;;;;;;5.82;97.97;95888.94;4183802;28;20217;-87
2023/11/28 07:04:15;;;;;;;2.25;2.05;;;;;;;5.70;97.65;95886.56;4188057;28;20292;-87
2023/11/28 07:06:19;;;;;;;2.42;2.20;;;;;;;5.65;98.05;95893.84;4174320;28;20240;-87
2023/11/28 07:08:22;;;;;;;2.25;2.05;;;;;;;5.59;98.02;95891.78;4189087;28;20210;-87
2023/11/28 07:10:28;;;;;;;2.60;2.40;;;;;;;5.57;98.45;95904.03;4173187;28;20221;-87
2023/11/28 07:12:31;;;;;;;2.67;2.40;;;;;;;5.51;98.78;95914.88;4186278;28;20206;-87
2023/11/28 07:14:34;;;;;;;2.60;2.28;;;;;;;5.52;98.72;95916.53;4186351;28;20310;-87
2023/11/28 07:16:36;;;;;;;4.20;1.75;;;;;;;5.45;97.47;95920.56;4174494;28;20218;-87
2023/11/28 07:18:40;;;;;;;2.42;1.70;;;;;;;5.42;98.36;95925.16;4173765;28;20233;-87
2023/11/28 07:20:43;;;;;;;1.63;1.48;;;;;;;5.43;97.80;95931.97;4188027;28;20559;-87
2023/11/28 07:22:46;;;;;;;1.55;0.93;;;;;;;5.31;97.65;95940.75;4173593;28;20268;-87
2023/11/28 07:24:51;;;;;;;1.50;1.20;;;;;;;5.31;97.01;95948.50;4186242;28;20318;-87
2023/11/28 07:26:54;;;;;;;1.50;1.20;;;;;;;5.28;98.11;95953.91;4188752;28;20205;-87
2023/11/28 07:28:58;;;;;;;2.53;1.40;;;;;;;5.26;96.95;95959.19;4186055;28;20652;-87
2023/11/28 07:31:01;;;;;;;1.92;1.38;;;;;;;5.22;96.84;95959.56;4193230;28;20217;-87
2023/11/28 07:33:04;;;;;;;1.42;1.00;;;;;;;5.19;96.93;95965.81;4182014;28;20232;-88
2023/11/28 07:35:08;;;;;;;1.48;1.20;;;;;;;5.16;97.14;95976.38;4169900;28;20210;-88
2023/11/28 07:37:11;;;;;;;2.10;1.20;;;;;;;5.14;97.15;95975.69;4183714;28;20297;-86
2023/11/28 07:39:15;;;;;;;1.40;0.98;;;;;;;5.13;97.49;95981.78;4185068;28;20194;-87
2023/11/28 07:41:19;;;;;;;1.73;1.13;;;;;;;5.16;98.13;95997.03;4191847;28;20265;-89
2023/11/28 07:43:24;;;;;;;1.40;1.00;;;;;;;5.16;97.21;95989.28;4173434;28;20210;-89
2023/11/28 07:45:26;;;;;;;1.58;0.98;;;;;;;5.15;97.92;95990.22;4172724;28;20208;-88
2023/11/28 07:47:29;;;;;;;2.58;1.20;;;;;;;5.08;97.42;96003.75;4174360;28;20297;-88
2023/11/28 07:49:33;;;;;;;1.42;1.00;;;;;;;5.01;97.37;96004.41;4191288;28;20244;-88
2023/11/28 07:51:36;;;;;;;1.70;1.23;;;;;;;5.01;97.25;96017.31;4169897;28;20234;-88
2023/11/28 07:53:39;;;;;;;1.88;1.40;;;;;;;4.99;97.02;96029.50;4186069;28;20212;-89
2023/11/28 07:55:43;;;;;;;1.65;1.00;;;;;;;4.94;97.71;96032.44;4202752;28;20205;-88
2023/11/28 07:57:48;;;;;;;1.73;1.40;;;;;;;4.93;97.41;96036.00;4188554;28;20231;-88
2023/11/28 07:59:51;;;;;;;1.88;1.40;;;;;;;4.87;96.49;96036.47;4185277;28;20210;-88
2023/11/28 08:01:54;;;;;;;2.28;1.30;;;;;;;4.88;97.17;96039.88;4191519;28;20205;-88
2023/11/28 08:03:58;;;;;;;2.45;1.80;;;;;;;4.84;96.66;96043.63;4186673;28;20230;-87
2023/11/28 08:06:03;;;;;;;2.60;1.80;;;;;;;4.77;97.05;96039.91;4184970;28;20280;-89
2023/11/28 08:08:06;;;;;;;2.20;1.60;;;;;;;4.75;97.00;96052.94;4189583;28;20201;-88
2023/11/28 08:10:11;;;;;;;2.10;1.50;;;;;;;4.76;96.68;96051.97;4189834;28;20201;-88
2023/11/28 08:12:14;;;;;;;5.30;3.83;;;;;;;4.76;97.32;96064.88;4186988;28;20218;-88
2023/11/28 08:14:19;;;;;;;3.70;2.85;;;;;;;4.75;96.93;96070.16;4185958;28;20598;-88
2023/11/28 08:16:24;;;;;;;2.80;2.10;;;;;;;4.70;96.31;96074.88;4189360;28;20210;-88
2023/11/28 08:18:28;;;;;;;2.40;1.70;;;;;;;4.68;96.45;96087.91;4186406;28;20212;-88
2023/11/28 08:20:35;;;;;;;2.58;2.30;;;;;;;4.67;97.29;96092.38;4187743;28;20228;-87
2023/11/28 08:22:37;;;;;;;1.90;1.38;;;;;;;4.60;97.07;96099.78;4171639;28;20226;-87
2023/11/28 08:24:41;;;;;;;2.22;1.70;;;;;;;4.57;96.80;96110.31;4181797;28;20202;-88
2023/11/28 08:26:47;;;;;;;3.50;2.33;;;;;;;4.59;96.45;96113.59;4181310;28;20198;-86
2023/11/28 08:28:53;;;;;;;2.10;1.83;;;;;;;4.59;96.77;96117.94;4184767;28;20198;-88
2023/11/28 08:30:56;;;;;;;2.50;1.77;;;;;;;4.60;97.43;96128.16;4183763;28;20292;-86
2023/11/28 08:33:00;;;;;;;1.80;1.58;;;;;;;4.58;97.46;96134.38;4181278;28;20208;-86
2023/11/28 08:35:02;;;;;;;2.50;1.92;;;;;;;4.58;97.61;96144.69;4183985;28;20222;-86
2023/11/28 08:37:06;;;;;;;2.30;2.00;;;;;;;4.60;97.75;96148.81;4165593;28;20206;-86
2023/11/28 08:39:09;;;;;;;2.85;1.88;;;;;;;4.64;96.83;96165.69;4171994;28;20194;-86
2023/11/28 08:41:12;;;;;;;2.42;1.98;;;;;;;4.68;97.97;96159.34;4183643;28;20651;-87
2023/11/28 08:43:16;;;;;;;2.67;2.08;;;;;;;4.71;97.32;96164.28;4188540;28;20604;-87
2023/11/28 08:45:19;;;;;;;2.53;1.90;;;;;;;4.70;96.83;96170.38;4188255;28;20297;-88
2023/11/28 08:47:23;;;;;;;2.28;1.88;;;;;;;4.69;96.09;96173.88;4182487;28;20202;-87
2023/11/28 08:49:26;;;;;;;2.05;1.65;;;;;;;4.63;96.05;96176.97;4185751;28;20281;-86
2023/11/28 08:51:30;;;;;;;2.33;1.73;;;;;;;4.59;97.01;96180.69;4167551;28;20293;-86
2023/11/28 08:53:33;;;;;;;1.65;1.50;;;;;;;4.57;96.61;96190.31;4187801;28;20209;-86
2023/11/28 08:55:36;;;;;;;1.88;1.50;;;;;;;4.51;96.50;96192.53;4187901;28;20629;-86
2023/11/28 08:57:39;;;;;;;1.90;1.40;;;;;;;4.45;96.15;96196.41;4183902;28;20690;-86
2023/11/28 08:59:42;;;;;;;2.30;1.55;;;;;;;4.53;97.04;96208.72;4175233;28;20213;-87
2023/11/28 09:01:46;;;;;;;2.53;1.80;;;;;;;4.43;96.30;96210.34;4171652;28;20257;-89
2023/11/28 09:03:51;;;;;;;4.15;2.63;;;;;;;4.40;96.45;96211.38;4171346;28;20703;-89
2023/11/28 09:05:55;;;;;;;3.47;1.75;;;;;;;4.35;95.84;96217.84;4188538;28;20825;-88
2023/11/28 09:08:01;;;;;;;2.65;1.98;;;;;;;4.36;97.22;96219.47;4182290;28;20231;-89
2023/11/28 09:10:05;;;;;;;3.10;2.22;;;;;;;4.37;96.77;96221.94;4190540;28;21253;-87
2023/11/28 09:12:08;;;;;;;2.92;1.90;;;;;;;4.38;97.15;96236.47;4185507;28;20213;-88
2023/11/28 09:14:12;;;;;;;2.05;1.30;;;;;;;4.35;96.53;96228.16;4186471;28;20711;-88
2023/11/28 09:16:16;;;;;;;2.42;1.70;;;;;;;4.31;97.08;96242.22;4187322;28;20202;-88
2023/11/28 09:18:20;;;;;;;1.48;1.20;;;;;;;4.31;96.71;96237.84;4181221;28;20201;-88
2023/11/28 09:20:25;;;;;;;2.05;1.10;;;;;;;4.35;97.28;96247.03;4169815;28;20289;-88
2023/11/28 09:22:28;;;;;;;2.28;1.48;;;;;;;4.36;96.71;96250.41;4188325;28;20221;-88
2023/11/28 09:24:31;;;;;;;2.55;1.85;;;;;;;4.36;97.83;96259.00;4198694;28;20267;-88
2023/11/28 09:26:37;;;;;;;1.90;1.30;;;;;;;4.39;97.01;96266.53;4201479;28;20209;-89
2023/11/28 09:28:40;;;;;;;2.63;1.60;;;;;;;4.42;97.44;96266.28;4169999;28;20265;-86
2023/11/28 09:30:43;;;;;;;3.65;2.47;;;;;;;4.45;97.62;96283.28;4184073;28;20559;-86
2023/11/28 09:32:46;;;;;;;1.60;1.27;;;;;;;4.44;97.31;96287.63;4172305;28;20795;-86
2023/11/28 09:34:49;;;;;;;2.38;1.30;;;;;;;4.46;96.89;96287.53;4191649;28;20210;-85
2023/11/28 09:36:55;;;;;;;1.67;1.10;;;;;;;4.47;97.03;96290.00;4185588;28;20426;-88
2023/11/28 09:39:03;;;;;;;1.73;1.10;;;;;;;4.50;96.91;96297.50;4193609;28;20676;-88
2023/11/28 09:41:07;;;;;;;2.65;1.40;;;;;;;4.55;97.21;96310.06;4188962;28;20228;-88
2023/11/28 09:43:11;;;;;;;1.63;1.20;;;;;;;4.55;96.37;96310.88;4193554;28;20655;-87
2023/11/28 09:45:14;;;;;;;2.00;1.52;;;;;;;4.59;96.40;96314.09;4176606;28;20206;-87
2023/11/28 09:47:20;;;;;;;2.00;1.60;;;;;;;4.60;96.26;96313.13;4189867;28;20438;-87